Terminal Aerodrome Forecast
Issued by NWS Shreveport, LA

Home | Current Version | Previous Version | Text Only | Print | Product List | Glossary On
Versions: 1 2 3 4 5 6 7 8 9 10 11 12 13 14 15 16 17
000
FTUS44 KSHV 052320
TAFMLU
TAF
KMLU 052320Z 0600/0624 18006KT P6SM VCSH BKN110
     FM060200 18004KT P6SM FEW050 SCT250
      TEMPO 0610/0614 5SM BR BKN004
     FM061400 20006KT P6SM BKN015
     FM061600 20008KT P6SM BKN030
     FM061800 19009G14KT P6SM SCT250=

USA.gov is the U.S. government's official web portal to all federal, state and local government web resources and services.